createdAt,value
2023-03-24T00:01:43.723Z,18.27
2023-03-24T00:04:10.385Z,18.25
2023-03-24T00:06:37.078Z,18.26
2023-03-24T00:09:04.437Z,18.25
2023-03-24T00:11:34.454Z,18.24
2023-03-24T00:14:02.878Z,18.22
2023-03-24T00:16:29.808Z,18.21
2023-03-24T00:18:56.907Z,18.21
2023-03-24T00:21:25.380Z,18.19
2023-03-24T00:23:55.203Z,18.19
2023-03-24T00:26:22.069Z,18.19
2023-03-24T00:28:49.470Z,18.17
2023-03-24T00:31:17.526Z,18.17
2023-03-24T00:33:50.713Z,18.17
2023-03-24T00:36:20.654Z,18.15
2023-03-24T00:38:48.665Z,18.16
2023-03-24T00:41:17.966Z,18.16
2023-03-24T00:43:44.414Z,18.17
2023-03-24T00:46:13.954Z,18.14
2023-03-24T00:48:42.005Z,18.15
2023-03-24T00:51:10.861Z,18.17
2023-03-24T00:53:43.472Z,18.18
2023-03-24T00:56:11.764Z,18.20
2023-03-24T00:58:38.647Z,18.20
2023-03-24T01:01:06.878Z,18.21
2023-03-24T01:03:35.116Z,18.22
2023-03-24T01:06:03.989Z,18.22
2023-03-24T01:08:30.997Z,18.24
2023-03-24T01:10:57.466Z,18.26
2023-03-24T01:13:28.531Z,18.26
2023-03-24T01:15:56.611Z,18.26
2023-03-24T01:18:24.040Z,18.29
2023-03-24T01:20:51.339Z,18.31
2023-03-24T01:23:23.152Z,18.33
2023-03-24T01:25:51.768Z,18.34
2023-03-24T01:28:23.255Z,18.36
2023-03-24T01:30:49.896Z,18.39
2023-03-24T01:33:16.585Z,18.36
2023-03-24T01:35:43.351Z,18.36
2023-03-24T01:38:11.967Z,18.34
2023-03-24T01:40:40.684Z,18.36
2023-03-24T01:43:15.672Z,18.39
2023-03-24T01:45:58.014Z,18.34
2023-03-24T01:48:31.497Z,18.34
2023-03-24T01:51:03.313Z,18.33
2023-03-24T01:53:32.934Z,18.33
2023-03-24T01:56:02.402Z,18.33
2023-03-24T01:58:32.131Z,18.32
2023-03-24T02:00:58.984Z,18.33
2023-03-24T02:03:29.990Z,18.33
2023-03-24T02:05:57.658Z,18.33
2023-03-24T02:08:40.686Z,18.31
2023-03-24T02:11:07.239Z,18.35
2023-03-24T02:13:33.713Z,18.33
2023-03-24T02:16:28.014Z,18.31
2023-03-24T02:19:17.632Z,18.31
2023-03-24T02:21:55.181Z,18.31
2023-03-24T02:24:36.567Z,18.31
2023-03-24T02:27:27.061Z,18.30
2023-03-24T02:30:14.898Z,18.31
2023-03-24T02:33:18.475Z,18.31
2023-03-24T02:36:15.336Z,18.32
2023-03-24T02:39:24.597Z,18.32
2023-03-24T02:42:02.053Z,18.34
2023-03-24T02:44:49.661Z,18.34
2023-03-24T02:47:26.287Z,18.40
2023-03-24T02:50:29.536Z,18.38
2023-03-24T02:53:09.139Z,18.42
2023-03-24T02:55:55.249Z,18.41
2023-03-24T02:58:32.174Z,18.44
2023-03-24T03:01:18.932Z,18.43
2023-03-24T03:03:50.950Z,18.46
2023-03-24T03:06:26.073Z,18.44
2023-03-24T03:08:55.144Z,18.47
2023-03-24T03:11:21.898Z,18.50
2023-03-24T03:13:57.008Z,18.47
2023-03-24T03:16:34.844Z,18.48
2023-03-24T03:19:06.011Z,18.50
2023-03-24T03:21:39.689Z,18.53
2023-03-24T03:24:11.126Z,18.55
2023-03-24T03:26:38.092Z,18.56
2023-03-24T03:29:11.643Z,18.53
2023-03-24T03:31:44.402Z,18.55
2023-03-24T03:34:30.887Z,18.54
2023-03-24T03:37:07.694Z,18.56
2023-03-24T03:39:41.390Z,18.59
2023-03-24T03:42:07.837Z,18.61
2023-03-24T03:44:34.266Z,18.64
2023-03-24T03:47:00.787Z,18.66
2023-03-24T03:49:27.419Z,18.66
2023-03-24T03:51:55.708Z,18.66
2023-03-24T03:54:25.676Z,18.68
2023-03-24T03:56:52.413Z,18.72
2023-03-24T03:59:36.982Z,18.69
2023-03-24T04:02:42.386Z,18.72
2023-03-24T04:05:26.365Z,18.75
2023-03-24T04:08:19.605Z,18.76
2023-03-24T04:11:22.675Z,18.78
2023-03-24T04:13:55.148Z,18.83
2023-03-24T04:16:58.334Z,18.80
2023-03-24T04:19:55.821Z,18.82
2023-03-24T04:22:40.538Z,18.87
2023-03-24T04:25:35.044Z,18.84
2023-03-24T04:28:26.185Z,18.84
2023-03-24T04:31:25.966Z,18.84
2023-03-24T04:34:05.983Z,18.84
2023-03-24T04:36:42.464Z,18.83
2023-03-24T04:39:17.077Z,18.80
2023-03-24T04:41:45.427Z,18.79
2023-03-24T04:44:12.615Z,18.75
2023-03-24T04:46:39.264Z,18.73
2023-03-24T04:49:06.214Z,18.70
2023-03-24T04:51:33.036Z,18.65
2023-03-24T04:53:59.625Z,18.61
2023-03-24T04:56:34.736Z,18.55
2023-03-24T04:59:01.322Z,18.53
2023-03-24T05:01:30.830Z,18.51
2023-03-24T05:03:58.671Z,18.48
2023-03-24T05:06:26.276Z,18.46
2023-03-24T05:08:52.888Z,18.44
2023-03-24T05:11:20.609Z,18.42
2023-03-24T05:13:47.774Z,18.42
2023-03-24T05:16:14.978Z,18.40
2023-03-24T05:18:41.773Z,18.40
2023-03-24T05:21:08.427Z,18.39
2023-03-24T05:23:35.405Z,18.37
2023-03-24T05:26:02.295Z,18.36
2023-03-24T05:28:28.845Z,18.36
2023-03-24T05:30:55.415Z,18.36
2023-03-24T05:33:22.018Z,18.35
2023-03-24T05:35:48.721Z,18.37
2023-03-24T05:38:15.524Z,18.39
2023-03-24T05:40:41.873Z,18.39
2023-03-24T05:43:08.635Z,18.39
2023-03-24T05:45:35.561Z,18.41
2023-03-24T05:48:01.972Z,18.41
2023-03-24T05:50:28.390Z,18.43
2023-03-24T05:52:54.737Z,18.41
2023-03-24T05:55:22.115Z,18.42
2023-03-24T05:57:48.499Z,18.41
2023-03-24T06:00:18.368Z,18.42
2023-03-24T06:02:45.937Z,18.43
2023-03-24T06:05:13.320Z,18.44
2023-03-24T06:07:42.357Z,18.42
2023-03-24T06:10:11.380Z,18.43
2023-03-24T06:12:38.835Z,18.42
2023-03-24T06:15:05.774Z,18.42
2023-03-24T06:17:32.220Z,18.41
2023-03-24T06:20:06.005Z,18.40
2023-03-24T06:22:33.724Z,18.37
2023-03-24T06:25:00.280Z,18.37
2023-03-24T06:27:30.211Z,18.35
2023-03-24T06:30:00.313Z,18.32
2023-03-24T06:32:27.257Z,18.31
2023-03-24T06:34:53.958Z,18.28
2023-03-24T06:37:23.635Z,18.23
2023-03-24T06:39:50.598Z,18.22
2023-03-24T06:42:18.687Z,18.17
2023-03-24T06:44:45.413Z,18.14
2023-03-24T06:47:11.794Z,18.10
2023-03-24T06:49:38.138Z,18.05
2023-03-24T06:52:04.829Z,17.98
2023-03-24T06:54:31.488Z,17.93
2023-03-24T06:56:57.930Z,17.88
2023-03-24T06:59:24.650Z,17.84
2023-03-24T07:01:52.260Z,17.80
2023-03-24T07:04:19.442Z,17.77
2023-03-24T07:06:56.674Z,17.71
2023-03-24T07:09:32.653Z,17.69
2023-03-24T07:11:59.260Z,17.64
2023-03-24T07:14:26.431Z,17.59
2023-03-24T07:16:53.734Z,17.58
2023-03-24T07:19:20.722Z,17.58
2023-03-24T07:21:49.988Z,17.56
2023-03-24T07:24:17.939Z,17.55
2023-03-24T07:26:44.774Z,17.57
2023-03-24T07:29:11.693Z,17.56
2023-03-24T07:31:39.539Z,17.58
2023-03-24T07:34:06.365Z,17.60
2023-03-24T07:36:33.070Z,17.62
2023-03-24T07:38:59.392Z,17.66
2023-03-24T07:41:27.620Z,17.69
2023-03-24T07:43:53.995Z,17.71
2023-03-24T07:46:20.409Z,17.76
2023-03-24T07:48:47.375Z,17.79
2023-03-24T07:51:13.930Z,17.81
2023-03-24T07:53:40.484Z,17.86
2023-03-24T07:56:07.959Z,17.90
2023-03-24T07:58:34.403Z,17.94
2023-03-24T08:01:00.767Z,17.98
2023-03-24T08:03:28.525Z,18.04
2023-03-24T08:05:55.380Z,18.09
2023-03-24T08:08:22.270Z,18.14
2023-03-24T08:10:50.463Z,18.19
2023-03-24T08:13:17.026Z,18.24
2023-03-24T08:15:43.589Z,18.30
2023-03-24T08:18:10.244Z,18.33
2023-03-24T08:20:37.038Z,18.35
2023-03-24T08:23:04.817Z,18.39
2023-03-24T08:25:31.481Z,18.45
2023-03-24T08:27:58.058Z,18.49
2023-03-24T08:30:28.724Z,18.55
2023-03-24T08:33:00.080Z,18.60
2023-03-24T08:35:32.842Z,18.63
2023-03-24T08:38:01.001Z,18.68
2023-03-24T08:40:29.229Z,18.72
2023-03-24T08:42:59.809Z,18.77
2023-03-24T08:45:30.490Z,18.81
2023-03-24T08:47:59.416Z,18.86
2023-03-24T08:50:31.729Z,18.91
2023-03-24T08:52:58.672Z,18.95
2023-03-24T08:55:25.636Z,19.00
2023-03-24T08:57:52.444Z,19.05
2023-03-24T09:00:21.250Z,19.11
2023-03-24T09:02:51.702Z,19.15
2023-03-24T09:05:24.595Z,19.23
2023-03-24T09:07:56.510Z,19.33
2023-03-24T09:10:22.825Z,19.38
2023-03-24T09:12:50.350Z,19.41
2023-03-24T09:15:17.127Z,19.42
2023-03-24T09:17:44.036Z,19.43
2023-03-24T09:20:14.372Z,19.42
2023-03-24T09:22:45.589Z,19.44
2023-03-24T09:25:15.407Z,19.43
2023-03-24T09:27:41.963Z,19.45
2023-03-24T09:30:10.125Z,19.43
2023-03-24T09:32:37.342Z,19.44
2023-03-24T09:35:04.341Z,19.44
2023-03-24T09:37:32.004Z,19.43
2023-03-24T09:40:02.503Z,19.44
2023-03-24T09:42:32.907Z,19.44
2023-03-24T09:45:05.074Z,19.45
2023-03-24T09:47:37.756Z,19.48
2023-03-24T09:50:16.149Z,19.52
2023-03-24T09:52:47.706Z,19.58
2023-03-24T09:55:22.548Z,19.63
2023-03-24T09:57:51.074Z,19.66
2023-03-24T10:00:20.239Z,19.72
2023-03-24T10:02:49.091Z,19.80
2023-03-24T10:05:22.382Z,19.81
2023-03-24T10:08:32.260Z,19.82
2023-03-24T10:11:03.694Z,19.89
2023-03-24T10:13:58.341Z,19.93
2023-03-24T10:19:00.622Z,20.03
2023-03-24T10:21:28.198Z,20.09
2023-03-24T10:24:28.369Z,20.11
2023-03-24T10:27:06.726Z,20.16
2023-03-24T10:29:36.432Z,20.21
2023-03-24T10:32:09.160Z,20.22
2023-03-24T10:34:38.706Z,20.24
2023-03-24T10:37:05.256Z,20.23
2023-03-24T10:39:44.091Z,20.23
2023-03-24T10:42:16.766Z,20.23
2023-03-24T10:44:43.769Z,20.26
2023-03-24T10:47:14.010Z,20.28
2023-03-24T10:49:53.034Z,20.29
2023-03-24T10:52:19.838Z,20.36
2023-03-24T10:55:07.514Z,20.36
2023-03-24T10:57:35.281Z,20.43
2023-03-24T11:00:17.456Z,20.41
2023-03-24T11:02:44.724Z,20.44
2023-03-24T11:05:18.932Z,20.43
2023-03-24T11:07:47.871Z,20.45
2023-03-24T11:10:18.725Z,20.44
2023-03-24T11:12:55.567Z,20.41
2023-03-24T11:15:29.202Z,20.42
2023-03-24T11:18:17.008Z,20.44
2023-03-24T11:20:51.005Z,20.46
2023-03-24T11:23:29.669Z,20.46
2023-03-24T11:26:17.000Z,20.46
2023-03-24T11:28:48.197Z,20.46
2023-03-24T11:31:24.763Z,20.45
2023-03-24T11:34:24.459Z,20.45
2023-03-24T11:37:13.756Z,20.49
2023-03-24T11:39:40.518Z,20.50
2023-03-24T11:42:18.463Z,20.43
2023-03-24T11:44:50.881Z,20.42
2023-03-24T11:47:24.506Z,20.37
2023-03-24T11:50:17.572Z,20.29
2023-03-24T11:53:18.215Z,20.24
2023-03-24T11:55:58.109Z,20.23
2023-03-24T11:58:36.819Z,20.20
2023-03-24T12:01:11.576Z,20.17
2023-03-24T12:03:43.655Z,20.14
2023-03-24T12:06:36.561Z,20.12
2023-03-24T12:09:27.574Z,20.13
2023-03-24T12:11:59.890Z,20.19
2023-03-24T12:15:26.801Z,20.19
2023-03-24T12:18:04.531Z,20.28
2023-03-24T12:20:36.347Z,20.35
2023-03-24T12:23:20.219Z,20.38
2023-03-24T12:26:20.484Z,20.44
2023-03-24T12:29:14.318Z,20.49
2023-03-24T12:32:05.796Z,20.49
2023-03-24T12:34:54.164Z,20.52
2023-03-24T12:37:26.626Z,20.55
2023-03-24T12:40:11.631Z,20.57
2023-03-24T12:42:46.946Z,20.60
2023-03-24T12:45:26.222Z,20.61
2023-03-24T12:48:30.178Z,20.63
2023-03-24T12:51:15.621Z,20.69
2023-03-24T12:54:19.549Z,20.71
2023-03-24T12:56:55.190Z,20.76
2023-03-24T12:59:35.928Z,20.79
2023-03-24T13:02:20.399Z,20.83
2023-03-24T13:04:49.468Z,20.89
2023-03-24T13:07:20.937Z,20.92
2023-03-24T13:09:55.879Z,20.95
2023-03-24T13:12:33.347Z,21.01
2023-03-24T13:15:13.948Z,21.07
2023-03-24T13:18:01.331Z,21.13
2023-03-24T13:20:32.993Z,21.20
2023-03-24T13:23:08.746Z,21.19
2023-03-24T13:25:51.084Z,21.19
2023-03-24T13:28:26.084Z,21.21
2023-03-24T13:30:53.056Z,21.22
2023-03-24T13:33:29.484Z,21.20
2023-03-24T13:36:32.084Z,21.17
2023-03-24T13:39:05.545Z,21.19
2023-03-24T13:41:34.952Z,21.19
2023-03-24T13:44:24.097Z,21.19
2023-03-24T13:47:09.857Z,21.14
2023-03-24T13:49:36.557Z,21.17
2023-03-24T13:52:06.540Z,21.14
2023-03-24T13:54:37.042Z,21.12
2023-03-24T13:57:18.555Z,21.08
2023-03-24T14:00:08.122Z,21.05
2023-03-24T14:02:49.372Z,21.01
2023-03-24T14:05:57.195Z,20.95
2023-03-24T14:08:55.389Z,20.89
2023-03-24T14:11:49.412Z,20.90
2023-03-24T14:14:15.883Z,20.88
2023-03-24T14:17:04.375Z,20.78
2023-03-24T14:19:32.953Z,20.80
2023-03-24T14:22:11.298Z,20.79
2023-03-24T14:24:38.731Z,20.81
2023-03-24T14:27:40.932Z,20.74
2023-03-24T14:30:11.270Z,20.77
2023-03-24T14:32:41.184Z,20.74
2023-03-24T14:35:25.371Z,20.65
2023-03-24T14:37:58.674Z,20.62
2023-03-24T14:40:29.669Z,20.48
2023-03-24T14:43:03.714Z,20.29
2023-03-24T14:45:33.194Z,20.15
2023-03-24T14:48:02.827Z,19.98
2023-03-24T14:50:29.645Z,19.87
2023-03-24T14:53:03.098Z,19.73
2023-03-24T14:55:30.679Z,19.66
2023-03-24T14:58:02.558Z,19.57
2023-03-24T15:00:35.975Z,19.49
2023-03-24T15:03:17.926Z,19.40
2023-03-24T15:05:44.483Z,19.38
2023-03-24T15:08:18.407Z,19.32
2023-03-24T15:10:56.219Z,19.25
2023-03-24T15:13:25.241Z,19.22
2023-03-24T15:15:51.781Z,19.18
2023-03-24T15:18:18.976Z,19.14
2023-03-24T15:20:46.267Z,19.11
2023-03-24T15:23:23.886Z,19.06
2023-03-24T15:25:51.959Z,19.07
2023-03-24T15:28:26.877Z,19.00
2023-03-24T15:30:56.276Z,18.99
2023-03-24T15:33:23.498Z,18.96
2023-03-24T15:35:56.954Z,18.90
2023-03-24T15:38:31.567Z,18.87
2023-03-24T15:41:09.496Z,18.84
2023-03-24T15:43:43.808Z,18.83
2023-03-24T15:46:30.714Z,18.80
2023-03-24T15:48:59.815Z,18.84
2023-03-24T15:51:52.534Z,18.84
2023-03-24T15:54:29.168Z,18.86
2023-03-24T15:57:13.962Z,18.86
2023-03-24T16:00:12.025Z,18.86
2023-03-24T16:02:45.954Z,18.89
2023-03-24T16:05:28.712Z,18.87
2023-03-24T16:08:01.057Z,18.90
2023-03-24T16:10:58.528Z,18.87
2023-03-24T16:13:24.940Z,18.91
2023-03-24T16:16:00.954Z,18.88
2023-03-24T16:18:37.888Z,18.87
2023-03-24T16:21:13.942Z,18.85
2023-03-24T16:23:42.286Z,18.87
2023-03-24T16:26:14.326Z,18.85
2023-03-24T16:28:40.863Z,18.85
2023-03-24T16:31:08.167Z,18.85
2023-03-24T16:33:35.707Z,18.83
2023-03-24T16:36:02.503Z,18.82
2023-03-24T16:38:29.094Z,18.81
2023-03-24T16:40:57.892Z,18.78
2023-03-24T16:43:24.941Z,18.78
2023-03-24T16:45:51.688Z,18.74
2023-03-24T16:48:18.745Z,18.70
2023-03-24T16:50:50.087Z,18.65
2023-03-24T16:53:21.178Z,18.60
2023-03-24T16:55:47.774Z,18.52
2023-03-24T16:58:19.076Z,18.42
2023-03-24T17:00:46.010Z,18.31
2023-03-24T17:03:14.184Z,18.19
2023-03-24T17:05:49.283Z,18.07
2023-03-24T17:08:18.734Z,17.99
2023-03-24T17:10:48.064Z,17.90
2023-03-24T17:13:18.727Z,17.83
2023-03-24T17:15:45.471Z,17.79
2023-03-24T17:18:11.913Z,17.76
2023-03-24T17:20:41.530Z,17.72
2023-03-24T17:23:11.533Z,17.67
2023-03-24T17:25:38.184Z,17.66
2023-03-24T17:28:12.237Z,17.64
2023-03-24T17:30:38.566Z,17.61
2023-03-24T17:33:05.791Z,17.59
2023-03-24T17:35:33.640Z,17.58
2023-03-24T17:38:00.252Z,17.57
2023-03-24T17:40:26.643Z,17.57
2023-03-24T17:42:52.972Z,17.56
2023-03-24T17:45:19.655Z,17.55
2023-03-24T17:47:46.736Z,17.53
2023-03-24T17:50:13.804Z,17.50
2023-03-24T17:52:44.295Z,17.48
2023-03-24T17:55:11.954Z,17.46
2023-03-24T17:57:38.848Z,17.43
2023-03-24T18:00:08.311Z,17.39
2023-03-24T18:02:35.060Z,17.36
2023-03-24T18:05:01.484Z,17.32
2023-03-24T18:07:27.912Z,17.29
2023-03-24T18:09:54.563Z,17.25
2023-03-24T18:12:23.769Z,17.21
2023-03-24T18:14:50.420Z,17.19
2023-03-24T18:17:17.118Z,17.18
2023-03-24T18:19:43.505Z,17.15
2023-03-24T18:22:10.029Z,17.14
2023-03-24T18:24:37.983Z,17.12
2023-03-24T18:27:06.062Z,17.11
2023-03-24T18:29:32.744Z,17.08
2023-03-24T18:31:59.305Z,17.06
2023-03-24T18:34:28.530Z,17.01
2023-03-24T18:36:55.290Z,17.00
2023-03-24T18:39:22.775Z,16.95
2023-03-24T18:41:53.183Z,16.94
2023-03-24T18:44:21.649Z,16.91
2023-03-24T18:46:49.077Z,16.90
2023-03-24T18:49:15.741Z,16.89
2023-03-24T18:51:43.338Z,16.87
2023-03-24T18:54:12.645Z,16.84
2023-03-24T18:56:39.188Z,16.80
2023-03-24T18:59:05.688Z,16.78
2023-03-24T19:01:33.374Z,16.77
2023-03-24T19:04:00.219Z,16.77
2023-03-24T19:06:30.880Z,16.77
2023-03-24T19:08:58.993Z,16.77
2023-03-24T19:11:26.167Z,16.78
2023-03-24T19:13:54.790Z,16.78
2023-03-24T19:16:21.439Z,16.80
2023-03-24T19:18:48.684Z,16.83
2023-03-24T19:21:17.063Z,16.81
2023-03-24T19:23:43.985Z,16.82
2023-03-24T19:26:11.058Z,16.80
2023-03-24T19:28:37.761Z,16.79
2023-03-24T19:31:09.650Z,16.77
2023-03-24T19:33:37.221Z,16.77
2023-03-24T19:36:05.724Z,16.77
2023-03-24T19:38:32.415Z,16.78
2023-03-24T19:41:04.030Z,16.81
2023-03-24T19:43:30.604Z,16.82
2023-03-24T19:45:56.957Z,16.81
2023-03-24T19:48:23.712Z,16.80
2023-03-24T19:50:52.724Z,16.80
2023-03-24T19:53:20.606Z,16.82
2023-03-24T19:55:47.308Z,16.85
2023-03-24T19:58:14.630Z,16.88
2023-03-24T20:00:41.239Z,16.89
2023-03-24T20:03:07.911Z,16.91
2023-03-24T20:05:35.435Z,16.91
2023-03-24T20:08:02.388Z,16.93
2023-03-24T20:10:29.308Z,16.94
2023-03-24T20:12:55.971Z,16.95
2023-03-24T20:15:22.693Z,17.00
2023-03-24T20:17:49.168Z,17.02
2023-03-24T20:20:15.638Z,17.04
2023-03-24T20:22:45.522Z,17.06
2023-03-24T20:25:14.136Z,17.07
2023-03-24T20:27:40.572Z,17.12
2023-03-24T20:30:08.256Z,17.15
2023-03-24T20:32:35.440Z,17.16
2023-03-24T20:35:02.079Z,17.16
2023-03-24T20:37:30.497Z,17.16
2023-03-24T20:39:56.863Z,17.18
2023-03-24T20:42:24.604Z,17.16
2023-03-24T20:44:50.943Z,17.17
2023-03-24T20:47:19.399Z,17.19
2023-03-24T20:49:46.243Z,17.18
2023-03-24T20:52:14.460Z,17.19
2023-03-24T20:54:41.595Z,17.21
2023-03-24T20:57:11.976Z,17.21
2023-03-24T20:59:39.276Z,17.20
2023-03-24T21:02:06.901Z,17.21
2023-03-24T21:04:33.799Z,17.20
2023-03-24T21:07:00.317Z,17.18
2023-03-24T21:09:27.560Z,17.17
2023-03-24T21:11:54.210Z,17.16
2023-03-24T21:14:21.116Z,17.14
2023-03-24T21:16:48.092Z,17.13
2023-03-24T21:19:14.629Z,17.12
2023-03-24T21:21:42.793Z,17.11
2023-03-24T21:24:10.236Z,17.10
2023-03-24T21:26:36.920Z,17.10
2023-03-24T21:29:03.283Z,17.11
2023-03-24T21:31:30.114Z,17.11
2023-03-24T21:33:57.098Z,17.11
2023-03-24T21:36:29.892Z,17.10
2023-03-24T21:38:57.409Z,17.11
2023-03-24T21:41:25.569Z,17.09
2023-03-24T21:43:53.883Z,17.09
2023-03-24T21:46:25.785Z,17.08
2023-03-24T21:48:55.942Z,17.06
2023-03-24T21:51:25.205Z,17.05
2023-03-24T21:53:59.501Z,17.04
2023-03-24T21:56:25.942Z,17.04
2023-03-24T21:58:54.699Z,17.02
2023-03-24T22:01:22.520Z,17.01
2023-03-24T22:03:50.577Z,16.99
2023-03-24T22:06:17.379Z,16.99
2023-03-24T22:08:44.233Z,16.98
2023-03-24T22:11:11.523Z,16.96
2023-03-24T22:13:39.398Z,16.96
2023-03-24T22:16:07.172Z,16.98
2023-03-24T22:18:34.639Z,16.97
2023-03-24T22:21:04.882Z,16.96
2023-03-24T22:23:33.474Z,16.96
2023-03-24T22:26:04.115Z,16.94
2023-03-24T22:28:32.275Z,16.92
2023-03-24T22:31:10.377Z,16.88
2023-03-24T22:33:37.266Z,16.89
2023-03-24T22:36:04.598Z,16.86
2023-03-24T22:38:32.058Z,16.85
2023-03-24T22:41:00.887Z,16.81
2023-03-24T22:43:29.473Z,16.80
2023-03-24T22:45:56.216Z,16.79
2023-03-24T22:48:23.644Z,16.79
2023-03-24T22:50:50.982Z,16.75
2023-03-24T22:53:17.541Z,16.71
2023-03-24T22:55:44.849Z,16.68
2023-03-24T22:58:16.036Z,16.65
2023-03-24T23:00:44.340Z,16.62
2023-03-24T23:03:11.528Z,16.61
2023-03-24T23:05:46.200Z,16.57
2023-03-24T23:08:15.050Z,16.58
2023-03-24T23:10:44.320Z,16.59
2023-03-24T23:13:11.755Z,16.58
2023-03-24T23:15:39.609Z,16.60
2023-03-24T23:18:06.123Z,16.60
2023-03-24T23:20:33.010Z,16.61
2023-03-24T23:22:59.455Z,16.62
2023-03-24T23:25:25.967Z,16.65
2023-03-24T23:27:52.589Z,16.65
2023-03-24T23:30:19.677Z,16.66
2023-03-24T23:32:47.126Z,16.67
2023-03-24T23:35:14.390Z,16.67
2023-03-24T23:37:41.439Z,16.67
2023-03-24T23:40:12.937Z,16.66
2023-03-24T23:42:45.265Z,16.64
2023-03-24T23:45:17.987Z,16.62
2023-03-24T23:47:50.305Z,16.60
2023-03-24T23:50:18.303Z,16.60
2023-03-24T23:52:45.354Z,16.59
2023-03-24T23:55:14.268Z,16.60
2023-03-24T23:57:42.243Z,16.60
